In Rescue
 
Open Full Screen Window  High Contrast Mode
Wind Gusting 00 knots
09
November 29, 2022 10:19 AM EST
Weather Information
Wind Direction
  180 °
Wind Speed
  09 kt (10 mph)
Wind Gust
  00 kt (0 mph)
Altimeter
30.05 in
Visibility
10 SM
Temperature
08° C
46° F
Dewpoint
05° C
41° F
Humidity
82%
1hr Rain Fall
00.00 in.
24hr Rain Fall
00.00 in.
Sky Condition
Overcast @ 3,400 ft
VFR

METAR KMRT 291519Z AUTO 18009KT 10SM OVC034 08/05 A3005 RMK AO2 T00810050

FAA Disclaimer: The data displayed is for advisory purposes only and is not to be used for flight planning or operations.